createdAt,value
2023-04-09T00:01:14.551Z,37.65
2023-04-09T00:03:43.228Z,36.35
2023-04-09T00:06:11.618Z,37.17
2023-04-09T00:08:38.109Z,42.28
2023-04-09T00:11:04.966Z,37.13
2023-04-09T00:13:39.013Z,38.25
2023-04-09T00:16:06.893Z,43.67
2023-04-09T00:18:33.709Z,51.13
2023-04-09T00:21:00.631Z,41.90
2023-04-09T00:23:27.259Z,38.80
2023-04-09T00:25:55.201Z,49.22
2023-04-09T00:28:21.868Z,52.55
2023-04-09T00:30:48.381Z,39.00
2023-04-09T00:33:18.048Z,47.45
2023-04-09T00:35:44.749Z,64.88
2023-04-09T00:38:12.308Z,48.97
2023-04-09T00:40:38.881Z,45.92
2023-04-09T00:43:05.658Z,39.22
2023-04-09T00:45:32.686Z,44.13
2023-04-09T00:47:59.562Z,41.58
2023-04-09T00:50:26.502Z,42.63
2023-04-09T00:52:53.339Z,44.67
2023-04-09T00:55:21.378Z,39.38
2023-04-09T00:57:47.925Z,34.38
2023-04-09T01:00:16.162Z,44.40
2023-04-09T01:02:43.967Z,34.67
2023-04-09T01:05:14.190Z,35.85
2023-04-09T01:08:05.769Z,31.88
2023-04-09T01:10:51.178Z,32.30
2023-04-09T01:13:33.283Z,32.38
2023-04-09T01:16:03.169Z,38.90
2023-04-09T01:18:41.822Z,38.70
2023-04-09T01:21:19.199Z,45.92
2023-04-09T01:24:17.063Z,44.53
2023-04-09T01:26:51.352Z,45.22
2023-04-09T01:29:20.456Z,43.00
2023-04-09T01:31:52.100Z,40.60
2023-04-09T01:34:20.519Z,38.00
2023-04-09T01:36:52.176Z,26.88
2023-04-09T01:39:19.341Z,34.40
2023-04-09T01:41:46.866Z,31.50
2023-04-09T01:44:16.697Z,30.65
2023-04-09T01:46:43.685Z,29.83
2023-04-09T01:49:11.259Z,37.50
2023-04-09T01:51:38.902Z,33.42
2023-04-09T01:54:05.725Z,31.15
2023-04-09T01:56:45.706Z,30.02
2023-04-09T01:59:12.690Z,36.15
2023-04-09T02:01:47.695Z,31.10
2023-04-09T02:04:29.586Z,39.75
2023-04-09T02:07:07.098Z,35.03
2023-04-09T02:09:37.065Z,38.00
2023-04-09T02:12:06.836Z,24.67
2023-04-09T02:14:34.580Z,33.22
2023-04-09T02:17:02.246Z,28.63
2023-04-09T02:19:39.637Z,34.78
2023-04-09T02:22:06.334Z,34.53
2023-04-09T02:24:32.802Z,40.45
2023-04-09T02:26:59.463Z,30.92
2023-04-09T02:29:25.919Z,35.13
2023-04-09T02:31:53.814Z,31.63
2023-04-09T02:34:20.373Z,48.88
2023-04-09T02:36:48.315Z,29.33
2023-04-09T02:39:15.424Z,37.47
2023-04-09T02:41:42.297Z,32.00
2023-04-09T02:44:08.967Z,33.22
2023-04-09T02:46:35.597Z,41.70
2023-04-09T02:49:02.584Z,43.85
2023-04-09T02:51:29.203Z,42.65
2023-04-09T02:53:55.868Z,34.90
2023-04-09T02:56:22.741Z,46.65
2023-04-09T02:58:53.995Z,41.17
2023-04-09T03:01:23.231Z,45.78
2023-04-09T03:03:50.434Z,46.58
2023-04-09T03:06:20.686Z,39.63
2023-04-09T03:08:47.316Z,44.92
2023-04-09T03:11:14.219Z,62.15
2023-04-09T03:13:40.687Z,52.67
2023-04-09T03:16:07.824Z,41.55
2023-04-09T03:18:34.363Z,47.55
2023-04-09T03:21:05.476Z,56.35
2023-04-09T03:23:35.285Z,41.20
2023-04-09T03:26:06.553Z,38.88
2023-04-09T03:28:49.437Z,34.05
2023-04-09T03:31:17.071Z,43.90
2023-04-09T03:33:44.944Z,40.97
2023-04-09T03:36:12.002Z,46.05
2023-04-09T03:38:52.599Z,36.83
2023-04-09T03:41:41.310Z,36.92
2023-04-09T03:44:11.666Z,46.92
2023-04-09T03:46:55.274Z,28.25
2023-04-09T03:49:22.654Z,33.08
2023-04-09T03:51:49.983Z,29.48
2023-04-09T03:54:16.687Z,37.63
2023-04-09T03:56:44.481Z,36.85
2023-04-09T03:59:13.511Z,27.88
2023-04-09T04:01:43.998Z,32.15
2023-04-09T04:04:10.787Z,30.92
2023-04-09T04:06:47.753Z,25.05
2023-04-09T04:09:32.805Z,25.15
2023-04-09T04:12:11.088Z,25.98
2023-04-09T04:14:51.085Z,22.17
2023-04-09T04:17:27.010Z,26.05
2023-04-09T04:19:54.599Z,21.50
2023-04-09T04:22:24.908Z,25.88
2023-04-09T04:24:55.025Z,25.02
2023-04-09T04:27:22.685Z,23.60
2023-04-09T04:29:49.913Z,23.55
2023-04-09T04:32:36.445Z,25.15
2023-04-09T04:35:07.621Z,28.63
2023-04-09T04:37:34.704Z,26.92
2023-04-09T04:40:02.796Z,23.40
2023-04-09T04:42:31.434Z,23.80
2023-04-09T04:45:01.395Z,25.92
2023-04-09T04:47:42.757Z,27.10
2023-04-09T04:50:09.815Z,25.98
2023-04-09T04:52:50.342Z,23.92
2023-04-09T04:55:18.347Z,25.55
2023-04-09T04:57:44.924Z,24.20
2023-04-09T05:00:14.530Z,26.33
2023-04-09T05:02:43.112Z,29.23
2023-04-09T05:05:18.138Z,25.23
2023-04-09T05:07:50.449Z,28.27
2023-04-09T05:10:16.996Z,27.40
2023-04-09T05:12:45.103Z,24.05
2023-04-09T05:15:18.415Z,24.60
2023-04-09T05:17:45.807Z,26.23
2023-04-09T05:20:14.337Z,27.00
2023-04-09T05:22:54.455Z,21.88
2023-04-09T05:25:27.793Z,22.17
2023-04-09T05:27:54.398Z,23.98
2023-04-09T05:30:21.602Z,28.95
2023-04-09T05:32:48.304Z,25.67
2023-04-09T05:35:16.099Z,24.70
2023-04-09T05:37:45.474Z,28.60
2023-04-09T05:40:12.677Z,25.75
2023-04-09T05:42:41.643Z,28.85
2023-04-09T05:45:17.603Z,26.67
2023-04-09T05:47:50.919Z,31.27
2023-04-09T05:50:20.539Z,27.48
2023-04-09T05:52:50.072Z,26.30
2023-04-09T05:55:16.964Z,30.65
2023-04-09T05:57:59.299Z,29.10
2023-04-09T06:00:26.540Z,27.42
2023-04-09T06:02:53.103Z,28.35
2023-04-09T06:05:19.649Z,25.98
2023-04-09T06:07:47.549Z,27.10
2023-04-09T06:10:14.373Z,23.40
2023-04-09T06:12:41.255Z,25.33
2023-04-09T06:15:09.468Z,26.77
2023-04-09T06:17:36.106Z,24.35
2023-04-09T06:20:02.792Z,24.38
2023-04-09T06:22:29.308Z,26.92
2023-04-09T06:24:55.812Z,30.70
2023-04-09T06:27:22.991Z,29.63
2023-04-09T06:29:49.458Z,32.00
2023-04-09T06:32:16.732Z,30.20
2023-04-09T06:34:43.345Z,28.48
2023-04-09T06:37:09.935Z,28.35
2023-04-09T06:39:37.412Z,27.40
2023-04-09T06:42:05.201Z,28.35
2023-04-09T06:44:38.656Z,27.27
2023-04-09T06:47:05.442Z,30.65
2023-04-09T06:49:31.908Z,28.25
2023-04-09T06:51:58.405Z,27.20
2023-04-09T06:54:25.024Z,30.77
2023-04-09T06:56:51.894Z,30.45
2023-04-09T06:59:18.673Z,28.45
2023-04-09T07:01:45.566Z,33.17
2023-04-09T07:04:12.191Z,33.58
2023-04-09T07:06:40.696Z,29.42
2023-04-09T07:09:07.523Z,27.10
2023-04-09T07:11:34.039Z,27.63
2023-04-09T07:14:00.890Z,29.73
2023-04-09T07:16:27.483Z,27.63
2023-04-09T07:18:54.074Z,28.90
2023-04-09T07:21:20.660Z,29.88
2023-04-09T07:23:48.058Z,25.95
2023-04-09T07:26:15.848Z,32.05
2023-04-09T07:28:42.466Z,27.60
2023-04-09T07:31:09.785Z,27.92
2023-04-09T07:33:36.278Z,30.73
2023-04-09T07:36:02.939Z,31.27
2023-04-09T07:38:30.362Z,26.48
2023-04-09T07:40:57.605Z,29.50
2023-04-09T07:43:24.123Z,32.10
2023-04-09T07:45:51.645Z,30.33
2023-04-09T07:48:18.189Z,33.15
2023-04-09T07:50:48.264Z,28.85
2023-04-09T07:53:14.907Z,30.23
2023-04-09T07:55:41.532Z,32.40
2023-04-09T07:58:08.064Z,34.35
2023-04-09T08:00:34.559Z,29.13
2023-04-09T08:03:01.840Z,30.92
2023-04-09T08:05:28.853Z,30.55
2023-04-09T08:07:55.439Z,33.85
2023-04-09T08:10:21.955Z,31.33
2023-04-09T08:12:48.990Z,32.13
2023-04-09T08:15:15.499Z,26.60
2023-04-09T08:17:42.132Z,32.05
2023-04-09T08:20:09.085Z,30.83
2023-04-09T08:22:35.657Z,30.58
2023-04-09T08:25:02.932Z,34.08
2023-04-09T08:27:29.597Z,28.05
2023-04-09T08:29:56.202Z,33.80
2023-04-09T08:32:23.800Z,31.98
2023-04-09T08:34:50.360Z,33.63
2023-04-09T08:37:17.540Z,28.73
2023-04-09T08:39:44.191Z,31.27
2023-04-09T08:42:12.599Z,30.42
2023-04-09T08:44:39.197Z,31.80
2023-04-09T08:47:11.382Z,30.55
2023-04-09T08:49:41.594Z,28.25
2023-04-09T08:52:09.818Z,28.25
2023-04-09T08:54:37.177Z,31.80
2023-04-09T08:57:05.846Z,28.58
2023-04-09T08:59:36.801Z,28.60
2023-04-09T09:02:07.832Z,28.38
2023-04-09T09:04:46.347Z,26.45
2023-04-09T09:07:13.409Z,26.88
2023-04-09T09:10:00.237Z,26.88
2023-04-09T09:12:40.470Z,27.85
2023-04-09T09:15:28.178Z,28.98
2023-04-09T09:17:59.605Z,27.65
2023-04-09T09:20:27.145Z,25.35
2023-04-09T09:22:55.902Z,30.35
2023-04-09T09:25:26.700Z,29.00
2023-04-09T09:27:54.564Z,28.55
2023-04-09T09:30:26.603Z,27.15
2023-04-09T09:33:05.623Z,27.00
2023-04-09T09:35:48.316Z,29.20
2023-04-09T09:38:16.244Z,29.48
2023-04-09T09:40:43.692Z,30.27
2023-04-09T09:43:10.979Z,26.33
2023-04-09T09:45:38.890Z,30.25
2023-04-09T09:48:08.327Z,25.88
2023-04-09T09:50:36.727Z,25.23
2023-04-09T09:53:07.633Z,25.77
2023-04-09T09:55:38.982Z,27.92
2023-04-09T09:58:17.295Z,24.48
2023-04-09T10:00:46.523Z,23.90
2023-04-09T10:03:25.231Z,25.58
2023-04-09T10:05:53.531Z,23.83
2023-04-09T10:08:21.730Z,21.27
2023-04-09T10:10:49.025Z,27.17
2023-04-09T10:13:27.126Z,23.80
2023-04-09T10:15:53.990Z,24.67
2023-04-09T10:18:21.329Z,29.15
2023-04-09T10:21:00.283Z,21.13
2023-04-09T10:23:41.560Z,20.90
2023-04-09T10:26:08.580Z,26.00
2023-04-09T10:28:37.509Z,24.38
2023-04-09T10:31:08.616Z,21.15
2023-04-09T10:33:37.344Z,20.75
2023-04-09T10:36:06.383Z,26.08
2023-04-09T10:38:38.364Z,21.80
2023-04-09T10:41:27.602Z,25.08
2023-04-09T10:43:57.056Z,21.13
2023-04-09T10:46:36.892Z,24.85
2023-04-09T10:49:10.452Z,24.88
2023-04-09T10:51:40.601Z,21.17
2023-04-09T10:54:32.753Z,23.13
2023-04-09T10:57:08.184Z,24.67
2023-04-09T10:59:41.196Z,21.98
2023-04-09T11:02:10.381Z,24.13
2023-04-09T11:04:46.562Z,25.50
2023-04-09T11:07:17.798Z,26.27
2023-04-09T11:09:44.362Z,21.15
2023-04-09T11:12:14.017Z,25.27
2023-04-09T11:14:40.568Z,26.02
2023-04-09T11:17:07.169Z,25.88
2023-04-09T11:19:34.330Z,24.88
2023-04-09T11:22:01.016Z,25.45
2023-04-09T11:24:39.638Z,25.35
2023-04-09T11:27:06.109Z,25.00
2023-04-09T11:29:35.065Z,23.00
2023-04-09T11:32:02.488Z,24.05
2023-04-09T11:34:29.081Z,26.75
2023-04-09T11:36:56.887Z,23.42
2023-04-09T11:39:23.460Z,23.95
2023-04-09T11:41:50.101Z,26.35
2023-04-09T11:44:16.625Z,21.83
2023-04-09T11:46:43.634Z,23.35
2023-04-09T11:49:10.311Z,21.73
2023-04-09T11:51:36.901Z,21.58
2023-04-09T11:54:04.873Z,23.25
2023-04-09T11:56:32.470Z,20.52
2023-04-09T11:58:59.500Z,19.67
2023-04-09T12:01:32.422Z,23.10
2023-04-09T12:04:00.235Z,22.25
2023-04-09T12:06:30.040Z,24.25
2023-04-09T12:08:58.064Z,23.55
2023-04-09T12:11:29.966Z,21.77
2023-04-09T12:14:01.246Z,19.55
2023-04-09T12:16:32.089Z,21.30
2023-04-09T12:19:09.145Z,19.40
2023-04-09T12:22:05.261Z,20.80
2023-04-09T12:24:32.011Z,21.73
2023-04-09T12:26:58.706Z,24.35
2023-04-09T12:29:26.704Z,22.98
2023-04-09T12:31:54.036Z,22.60
2023-04-09T12:34:20.720Z,23.80
2023-04-09T12:36:47.297Z,22.73
2023-04-09T12:39:14.724Z,19.15
2023-04-09T12:41:43.218Z,22.90
2023-04-09T12:44:09.961Z,21.33
2023-04-09T12:46:37.531Z,22.92
2023-04-09T12:49:04.272Z,26.40
2023-04-09T12:51:30.832Z,19.67
2023-04-09T12:53:57.370Z,22.70
2023-04-09T12:56:24.791Z,22.02
2023-04-09T12:58:52.059Z,22.33
2023-04-09T13:01:18.898Z,21.88
2023-04-09T13:03:45.708Z,20.77
2023-04-09T13:06:12.311Z,23.25
2023-04-09T13:08:38.840Z,20.48
2023-04-09T13:11:05.889Z,22.00
2023-04-09T13:13:32.399Z,21.90
2023-04-09T13:15:59.019Z,23.35
2023-04-09T13:18:25.630Z,21.90
2023-04-09T13:20:52.133Z,18.65
2023-04-09T13:23:18.605Z,22.77
2023-04-09T13:25:45.437Z,25.27
2023-04-09T13:28:14.249Z,22.23
2023-04-09T13:30:40.773Z,26.52
2023-04-09T13:33:07.325Z,23.08
2023-04-09T13:35:34.774Z,23.55
2023-04-09T13:38:01.328Z,23.60
2023-04-09T13:40:27.912Z,24.35
2023-04-09T13:42:54.392Z,22.45
2023-04-09T13:45:23.700Z,25.38
2023-04-09T13:47:50.215Z,20.60
2023-04-09T13:50:17.092Z,19.23
2023-04-09T13:52:43.509Z,21.13
2023-04-09T13:55:10.408Z,22.33
2023-04-09T13:57:37.270Z,18.35
2023-04-09T14:00:04.634Z,20.90
2023-04-09T14:02:32.097Z,20.13
2023-04-09T14:04:59.111Z,18.33
2023-04-09T14:07:26.308Z,18.73
2023-04-09T14:09:52.812Z,19.85
2023-04-09T14:12:19.282Z,17.25
2023-04-09T14:14:45.778Z,23.08
2023-04-09T14:17:12.464Z,20.02
2023-04-09T14:19:39.734Z,20.85
2023-04-09T14:22:07.723Z,20.75
2023-04-09T14:24:40.296Z,19.95
2023-04-09T14:27:10.340Z,21.55
2023-04-09T14:29:36.839Z,20.52
2023-04-09T14:32:03.633Z,21.98
2023-04-09T14:34:31.416Z,20.05
2023-04-09T14:36:58.032Z,21.45
2023-04-09T14:39:24.633Z,18.88
2023-04-09T14:41:51.780Z,19.67
2023-04-09T14:44:18.274Z,19.95
2023-04-09T14:46:45.502Z,19.00
2023-04-09T14:49:13.563Z,21.90
2023-04-09T14:51:40.129Z,21.83
2023-04-09T14:54:06.740Z,20.13
2023-04-09T14:56:35.390Z,16.55
2023-04-09T14:59:01.881Z,15.73
2023-04-09T15:01:28.469Z,17.50
2023-04-09T15:03:55.648Z,19.77
2023-04-09T15:06:22.552Z,20.65
2023-04-09T15:08:49.008Z,21.00
2023-04-09T15:11:16.615Z,22.35
2023-04-09T15:13:43.589Z,20.08
2023-04-09T15:16:10.507Z,18.67
2023-04-09T15:18:40.143Z,18.38
2023-04-09T15:21:07.314Z,22.00
2023-04-09T15:23:35.457Z,18.83
2023-04-09T15:26:02.208Z,20.00
2023-04-09T15:28:30.303Z,15.90
2023-04-09T15:30:57.954Z,19.90
2023-04-09T15:33:24.537Z,17.83
2023-04-09T15:35:51.166Z,15.63
2023-04-09T15:38:17.801Z,17.05
2023-04-09T15:40:46.138Z,21.05
2023-04-09T15:43:13.974Z,19.83
2023-04-09T15:45:41.427Z,15.95
2023-04-09T15:48:09.470Z,15.50
2023-04-09T15:50:36.198Z,22.83
2023-04-09T15:53:02.946Z,18.48
2023-04-09T15:55:29.547Z,16.98
2023-04-09T15:57:56.036Z,22.30
2023-04-09T16:00:26.233Z,18.33
2023-04-09T16:02:53.686Z,66.38
2023-04-09T16:05:20.482Z,17.75
2023-04-09T16:07:51.021Z,16.90
2023-04-09T16:10:18.840Z,16.70
2023-04-09T16:12:45.488Z,16.00
2023-04-09T16:15:12.071Z,16.05
2023-04-09T16:17:40.873Z,16.38
2023-04-09T16:20:08.513Z,13.70
2023-04-09T16:22:35.460Z,14.13
2023-04-09T16:25:02.033Z,14.52
2023-04-09T16:27:28.997Z,14.57
2023-04-09T16:29:56.076Z,13.65
2023-04-09T16:32:22.886Z,13.63
2023-04-09T16:34:49.431Z,17.58
2023-04-09T16:37:16.093Z,14.23
2023-04-09T16:39:42.636Z,17.92
2023-04-09T16:42:11.011Z,14.80
2023-04-09T16:44:38.055Z,16.83
2023-04-09T16:47:05.637Z,13.07
2023-04-09T16:49:32.185Z,13.75
2023-04-09T16:51:58.787Z,14.68
2023-04-09T16:54:25.885Z,13.85
2023-04-09T16:56:53.063Z,18.27
2023-04-09T16:59:21.031Z,15.50
2023-04-09T17:01:51.361Z,15.93
2023-04-09T17:04:18.028Z,16.48
2023-04-09T17:06:44.798Z,18.20
2023-04-09T17:09:11.655Z,16.50
2023-04-09T17:11:38.305Z,18.85
2023-04-09T17:14:05.751Z,18.05
2023-04-09T17:16:33.178Z,17.10
2023-04-09T17:18:59.807Z,18.20
2023-04-09T17:21:26.534Z,18.35
2023-04-09T17:23:53.077Z,19.25
2023-04-09T17:26:20.716Z,17.73
2023-04-09T17:28:47.630Z,21.48
2023-04-09T17:31:15.951Z,19.92
2023-04-09T17:33:47.002Z,18.45
2023-04-09T17:36:14.148Z,22.73
2023-04-09T17:38:40.617Z,18.52
2023-04-09T17:41:07.901Z,22.00
2023-04-09T17:43:34.557Z,19.83
2023-04-09T17:46:01.567Z,22.25
2023-04-09T17:48:30.063Z,21.58
2023-04-09T17:50:58.057Z,20.42
2023-04-09T17:53:25.038Z,24.48
2023-04-09T17:55:52.054Z,19.35
2023-04-09T17:58:19.141Z,20.10
2023-04-09T18:00:45.680Z,20.80
2023-04-09T18:03:12.853Z,20.05
2023-04-09T18:05:39.809Z,20.85
2023-04-09T18:08:07.336Z,18.90
2023-04-09T18:10:34.307Z,17.42
2023-04-09T18:13:00.797Z,19.67
2023-04-09T18:15:28.232Z,18.88
2023-04-09T18:17:54.927Z,17.65
2023-04-09T18:20:21.458Z,20.67
2023-04-09T18:22:48.124Z,19.02
2023-04-09T18:25:14.639Z,16.55
2023-04-09T18:27:41.156Z,17.85
2023-04-09T18:30:08.186Z,17.10
2023-04-09T18:32:34.842Z,19.33
2023-04-09T18:35:01.639Z,22.02
2023-04-09T18:37:28.313Z,22.08
2023-04-09T18:39:55.111Z,19.80
2023-04-09T18:42:21.798Z,18.58
2023-04-09T18:44:48.723Z,21.77
2023-04-09T18:47:15.323Z,23.35
2023-04-09T18:49:42.363Z,26.75
2023-04-09T18:52:10.342Z,25.50
2023-04-09T18:54:37.318Z,24.80
2023-04-09T18:57:04.403Z,24.70
2023-04-09T18:59:33.403Z,22.98
2023-04-09T19:02:00.563Z,23.85
2023-04-09T19:04:28.152Z,28.75
2023-04-09T19:06:54.774Z,20.42
2023-04-09T19:09:21.626Z,26.88
2023-04-09T19:11:48.663Z,26.92
2023-04-09T19:14:15.931Z,24.83
2023-04-09T19:16:44.428Z,24.80
2023-04-09T19:19:11.855Z,27.92
2023-04-09T19:21:38.396Z,31.40
2023-04-09T19:24:06.220Z,32.45
2023-04-09T19:26:33.232Z,32.38
2023-04-09T19:28:59.970Z,31.40
2023-04-09T19:31:26.576Z,34.50
2023-04-09T19:33:53.245Z,37.97
2023-04-09T19:36:19.785Z,33.67
2023-04-09T19:38:46.501Z,34.95
2023-04-09T19:41:13.052Z,35.78
2023-04-09T19:43:41.866Z,33.97
2023-04-09T19:46:08.774Z,35.90
2023-04-09T19:48:36.813Z,31.40
2023-04-09T19:51:03.702Z,31.92
2023-04-09T19:53:31.035Z,32.72
2023-04-09T19:55:57.694Z,34.00
2023-04-09T19:58:24.371Z,32.58
2023-04-09T20:00:51.434Z,29.40
2023-04-09T20:03:18.729Z,33.15
2023-04-09T20:05:45.328Z,28.10
2023-04-09T20:08:15.144Z,30.25
2023-04-09T20:10:45.037Z,32.78
2023-04-09T20:13:11.944Z,30.35
2023-04-09T20:15:38.788Z,33.72
2023-04-09T20:18:06.267Z,36.60
2023-04-09T20:20:32.956Z,34.80
2023-04-09T20:22:59.787Z,32.83
2023-04-09T20:25:33.790Z,33.72
2023-04-09T20:28:01.857Z,31.40
2023-04-09T20:30:28.399Z,35.10
2023-04-09T20:32:54.983Z,33.13
2023-04-09T20:35:21.616Z,30.67
2023-04-09T20:37:50.143Z,36.42
2023-04-09T20:40:17.365Z,33.03
2023-04-09T20:42:44.989Z,33.17
2023-04-09T20:45:11.622Z,34.35
2023-04-09T20:47:38.280Z,34.05
2023-04-09T20:50:05.365Z,30.58
2023-04-09T20:52:32.738Z,35.72
2023-04-09T20:54:59.252Z,44.30
2023-04-09T20:57:25.972Z,30.65
2023-04-09T20:59:56.014Z,35.72
2023-04-09T21:02:23.900Z,38.88
2023-04-09T21:04:50.514Z,37.95
2023-04-09T21:07:17.948Z,38.00
2023-04-09T21:09:44.532Z,38.00
2023-04-09T21:12:12.332Z,42.53
2023-04-09T21:14:39.267Z,37.38
2023-04-09T21:17:05.996Z,40.40
2023-04-09T21:19:33.125Z,39.90
2023-04-09T21:22:00.149Z,38.25
2023-04-09T21:24:27.907Z,42.95
2023-04-09T21:26:54.488Z,40.67
2023-04-09T21:29:21.412Z,46.58
2023-04-09T21:31:48.871Z,45.85
2023-04-09T21:34:16.920Z,40.35
2023-04-09T21:36:45.263Z,41.30
2023-04-09T21:39:12.527Z,39.67
2023-04-09T21:41:40.131Z,44.08
2023-04-09T21:44:09.638Z,39.10
2023-04-09T21:46:37.342Z,46.05
2023-04-09T21:49:05.489Z,44.72
2023-04-09T21:51:32.787Z,41.92
2023-04-09T21:54:06.988Z,43.22
2023-04-09T21:56:34.478Z,41.30
2023-04-09T21:59:02.622Z,43.13
2023-04-09T22:01:34.543Z,43.47
2023-04-09T22:04:02.119Z,44.63
2023-04-09T22:06:29.292Z,40.67
2023-04-09T22:08:57.749Z,39.50
2023-04-09T22:11:29.868Z,39.65
2023-04-09T22:13:58.532Z,36.53
2023-04-09T22:16:25.982Z,37.40
2023-04-09T22:18:58.015Z,43.85
2023-04-09T22:21:24.943Z,32.08
2023-04-09T22:23:51.407Z,36.55
2023-04-09T22:26:17.942Z,39.90
2023-04-09T22:28:44.516Z,40.38
2023-04-09T22:31:11.332Z,38.85
2023-04-09T22:33:38.073Z,33.72
2023-04-09T22:36:07.866Z,36.78
2023-04-09T22:38:34.858Z,33.15
2023-04-09T22:41:01.587Z,35.92
2023-04-09T22:43:28.095Z,34.78
2023-04-09T22:45:58.436Z,34.28
2023-04-09T22:48:24.952Z,30.95
2023-04-09T22:50:51.446Z,31.40
2023-04-09T22:53:19.253Z,31.27
2023-04-09T22:55:50.655Z,35.90
2023-04-09T22:58:17.621Z,37.22
2023-04-09T23:00:45.026Z,35.88
2023-04-09T23:03:12.012Z,33.05
2023-04-09T23:05:39.377Z,36.85
2023-04-09T23:08:06.996Z,31.10
2023-04-09T23:10:33.626Z,38.15
2023-04-09T23:13:02.908Z,32.33
2023-04-09T23:15:29.499Z,38.13
2023-04-09T23:17:56.237Z,30.75
2023-04-09T23:20:23.191Z,34.88
2023-04-09T23:22:52.306Z,33.28
2023-04-09T23:25:22.628Z,34.67
2023-04-09T23:27:49.176Z,36.90
2023-04-09T23:30:18.627Z,36.03
2023-04-09T23:32:45.723Z,34.25
2023-04-09T23:35:13.212Z,37.10
2023-04-09T23:37:41.252Z,33.78
2023-04-09T23:40:08.619Z,36.50
2023-04-09T23:42:35.602Z,32.97
2023-04-09T23:45:04.472Z,31.00
2023-04-09T23:47:35.635Z,35.75
2023-04-09T23:50:07.185Z,35.15
2023-04-09T23:52:36.401Z,31.98
2023-04-09T23:55:08.889Z,33.95
2023-04-09T23:57:40.028Z,33.58
